Flight Track Log - Related Links

Times and Time Zones

All times are in EDT time to prevent confusion due to time zone crossing. See the KAL1337 flight status page for this flight to view local times or setup timezone preferences in your user account.

Time Position Orientation Groundspeed Altitude Reporting Facility
EDT Latitude Longitude Course Direction KTS MPH feet Rate Location/Type
Mon 03:42:00 AM 37.4733 126.8173 166° South  Level Estimated
Mon 03:43:00 AM 37.3882 126.8440 166° South  Level Estimated
Mon 03:44:00 AM 37.3032 126.8706 166° South  Level Estimated
Mon 03:45:00 AM 37.2181 126.8971 166° South  Level Estimated
Mon 03:46:00 AM 37.1303 126.9244 166° South  Level Estimated
Mon 03:47:00 AM 37.0424 126.9517 166° South  Level Estimated
Mon 03:48:00 AM 36.9546 126.9789 166° South  Level Estimated
Mon 03:49:00 AM 36.8668 127.0061 166° South  Level Estimated
Mon 03:50:00 AM 36.7789 127.0331 166° South  Level Estimated
Mon 03:51:00 AM 36.6911 127.0602 166° South  Level Estimated
Mon 03:52:00 AM 36.6032 127.0871 166° South  Level Estimated
Mon 03:53:00 AM 36.5154 127.1140 166° South  Level Estimated
Mon 03:54:00 AM 36.4214 127.1427 166° South  Level Estimated
Mon 03:55:00 AM 36.3275 127.1713 166° South  Level Estimated
Mon 03:56:00 AM 36.2336 127.1999 166° South  Level Estimated
Mon 03:57:00 AM 36.1396 127.2283 166° South  Level Estimated
Mon 03:58:00 AM 36.0457 127.2568 166° South  Level Estimated
Mon 03:59:00 AM 35.9517 127.2851 166° South  Level Estimated
Mon 04:00:00 AM 35.8577 127.3134 166° South  Level Estimated
Mon 04:01:00 AM 35.7638 127.3416 166° South  Level Estimated
Mon 04:02:00 AM 35.6698 127.3697 166° South  Level Estimated
Mon 04:03:00 AM 35.5758 127.3978 166° South  Level Estimated
Mon 04:04:00 AM 35.4818 127.4258 166° South  Level Estimated
Mon 04:05:00 AM 35.3878 127.4537 166° South  Level Estimated
Mon 04:06:00 AM 35.2938 127.4816 166° South  Level Estimated
Mon 04:07:00 AM 35.1998 127.5094 166° South  Level Estimated
Mon 04:08:00 AM 35.1058 127.5372 166° South  Level Estimated
Mon 04:09:00 AM 35.0117 127.5649 166° South  Level Estimated
Mon 04:10:00 AM 34.9177 127.5925 166° South  Level Estimated
Mon 04:11:00 AM 34.8398 127.6153 166° South  Level Estimated
Mon 04:12:00 AM 34.8398 127.6153 180° South  Level Estimated
Mon 04:13:00 AM 34.8398 127.6153 180° South  Level Estimated
Mon 04:14:00 AM 34.8398 127.6153 180° South  Level Estimated
Mon 04:15:00 AM 34.8398 127.6153 180° South  Level Estimated
Mon 04:16:00 AM 34.8398 127.6153 180° South  Level Estimated
Mon 04:17:00 AM 34.8398 127.6153 180° South  Level Estimated
Mon 04:18:00 AM 34.8398 127.6153 180° South  Level Estimated
Mon 04:19:00 AM 34.8398 127.6153 180° South  Level Estimated
Mon 04:20:00 AM 34.8398 127.6153 180° South  Level Estimated
Mon 04:21:00 AM 34.8398 127.6153 180° South  Level Estimated
Mon 04:22:00 AM 34.8398 127.6153 180° South  Level Estimated
Mon 04:23:00 AM 34.8398 127.6153 180° South  Level Estimated

Login

Don't have an account? Register now (free) for customized features, flight alerts, and more!